createdAt,value
2022-11-27T00:00:55.026Z,982.11
2022-11-27T00:01:55.257Z,982.15
2022-11-27T00:02:55.584Z,982.11
2022-11-27T00:03:55.857Z,982.14
2022-11-27T00:04:55.917Z,982.10
2022-11-27T00:05:56.155Z,982.12
2022-11-27T00:06:56.367Z,982.11
2022-11-27T00:07:56.694Z,982.09
2022-11-27T00:08:56.771Z,982.05
2022-11-27T00:09:57.002Z,982.07
2022-11-27T00:10:57.210Z,982.04
2022-11-27T00:11:57.448Z,982.09
2022-11-27T00:12:57.659Z,982.08
2022-11-27T00:13:57.890Z,982.09
2022-11-27T00:14:58.090Z,982.09
2022-11-27T00:15:58.401Z,982.05
2022-11-27T00:16:58.501Z,982.06
2022-11-27T00:17:58.741Z,982.07
2022-11-27T00:18:58.941Z,982.07
2022-11-27T00:19:59.175Z,982.06
2022-11-27T00:20:59.392Z,982.05
2022-11-27T00:21:59.644Z,982.03
2022-11-27T00:22:59.904Z,982.00
2022-11-27T00:24:00.094Z,982.00
2022-11-27T00:25:00.313Z,981.97
2022-11-27T00:26:00.544Z,981.97
2022-11-27T00:27:00.754Z,982.02
2022-11-27T00:28:00.985Z,982.00
2022-11-27T00:29:01.203Z,982.02
2022-11-27T00:30:01.424Z,982.00
2022-11-27T00:31:01.609Z,982.05
2022-11-27T00:32:01.695Z,982.03
2022-11-27T00:33:01.986Z,982.05
2022-11-27T00:34:02.146Z,982.04
2022-11-27T00:35:02.383Z,982.04
2022-11-27T00:36:02.587Z,981.99
2022-11-27T00:37:02.828Z,982.00
2022-11-27T00:38:03.047Z,982.01
2022-11-27T00:39:03.286Z,982.03
2022-11-27T00:40:03.510Z,982.00
2022-11-27T00:41:03.739Z,982.05
2022-11-27T00:42:03.929Z,982.07
2022-11-27T00:43:04.166Z,982.06
2022-11-27T00:44:04.391Z,982.03
2022-11-27T00:45:04.620Z,982.06
2022-11-27T00:46:04.858Z,982.04
2022-11-27T00:47:05.108Z,982.07
2022-11-27T00:48:05.232Z,982.03
2022-11-27T00:49:05.351Z,982.02
2022-11-27T00:50:05.570Z,982.05
2022-11-27T00:51:05.791Z,982.07
2022-11-27T00:52:06.021Z,982.03
2022-11-27T00:53:06.253Z,982.03
2022-11-27T00:54:06.467Z,982.05
2022-11-27T00:55:06.703Z,982.02
2022-11-27T00:56:06.913Z,982.01
2022-11-27T00:57:07.145Z,982.03
2022-11-27T00:58:07.363Z,982.03
2022-11-27T00:59:07.604Z,982.02
2022-11-27T01:00:07.814Z,982.02
2022-11-27T01:01:08.041Z,982.03
2022-11-27T01:02:08.322Z,982.05
2022-11-27T01:03:08.543Z,982.02
2022-11-27T01:04:08.607Z,982.01
2022-11-27T01:05:08.845Z,981.97
2022-11-27T01:06:09.104Z,981.97
2022-11-27T01:07:09.379Z,981.94
2022-11-27T01:08:09.515Z,981.94
2022-11-27T01:09:09.735Z,981.95
2022-11-27T01:10:09.936Z,981.92
2022-11-27T01:11:10.168Z,981.93
2022-11-27T01:12:10.388Z,981.94
2022-11-27T01:13:10.636Z,981.92
2022-11-27T01:14:10.838Z,981.88
2022-11-27T01:15:11.079Z,981.90
2022-11-27T01:16:11.329Z,981.89
2022-11-27T01:17:11.565Z,981.85
2022-11-27T01:18:12.167Z,981.83
2022-11-27T01:19:11.957Z,981.81
2022-11-27T01:20:12.176Z,981.78
2022-11-27T01:21:12.400Z,981.76
2022-11-27T01:22:12.621Z,981.72
2022-11-27T01:23:12.871Z,981.74
2022-11-27T01:24:12.971Z,981.72
2022-11-27T01:25:13.183Z,981.75
2022-11-27T01:26:13.400Z,981.71
2022-11-27T01:27:13.639Z,981.66
2022-11-27T01:28:15.101Z,981.67
2022-11-27T01:29:14.022Z,981.63
2022-11-27T01:30:14.243Z,981.64
2022-11-27T01:31:14.518Z,981.61
2022-11-27T01:32:14.624Z,981.59
2022-11-27T01:33:14.864Z,981.56
2022-11-27T01:34:15.085Z,981.59
2022-11-27T01:35:15.314Z,981.64
2022-11-27T01:36:15.534Z,981.56
2022-11-27T01:37:15.755Z,981.62
2022-11-27T01:38:15.974Z,981.60
2022-11-27T01:39:16.193Z,981.59
2022-11-27T01:40:16.403Z,981.58
2022-11-27T01:41:16.636Z,981.56
2022-11-27T01:42:16.846Z,981.56
2022-11-27T01:43:17.076Z,981.58
2022-11-27T01:44:17.297Z,981.57
2022-11-27T01:45:17.556Z,981.51
2022-11-27T01:46:17.781Z,981.49
2022-11-27T01:47:17.978Z,981.50
2022-11-27T01:48:18.188Z,981.45
2022-11-27T01:49:18.438Z,981.46
2022-11-27T01:50:18.531Z,981.43
2022-11-27T01:51:18.769Z,981.46
2022-11-27T01:52:18.979Z,981.47
2022-11-27T01:53:19.201Z,981.45
2022-11-27T01:54:19.408Z,981.51
2022-11-27T01:55:19.640Z,981.46
2022-11-27T01:56:19.839Z,981.42
2022-11-27T01:57:20.071Z,981.44
2022-11-27T01:58:20.281Z,981.42
2022-11-27T01:59:20.520Z,981.42
2022-11-27T02:00:20.731Z,981.42
2022-11-27T02:01:21.002Z,981.42
2022-11-27T02:02:21.151Z,981.43
2022-11-27T02:03:21.449Z,981.35
2022-11-27T02:04:21.563Z,981.37
2022-11-27T02:05:21.790Z,981.33
2022-11-27T02:06:22.004Z,981.30
2022-11-27T02:07:22.275Z,981.28
2022-11-27T02:08:22.365Z,981.28
2022-11-27T02:09:22.633Z,981.22
2022-11-27T02:10:22.810Z,981.24
2022-11-27T02:11:23.059Z,981.24
2022-11-27T02:12:23.156Z,981.25
2022-11-27T02:13:23.393Z,981.23
2022-11-27T02:14:23.597Z,981.20
2022-11-27T02:15:23.837Z,981.20
2022-11-27T02:16:24.098Z,981.23
2022-11-27T02:17:24.326Z,981.23
2022-11-27T02:18:24.527Z,981.21
2022-11-27T02:19:24.757Z,981.24
2022-11-27T02:20:24.907Z,981.23
2022-11-27T02:21:25.106Z,981.21
2022-11-27T02:22:25.318Z,981.21
2022-11-27T02:23:25.551Z,981.23
2022-11-27T02:24:25.767Z,981.25
2022-11-27T02:25:28.462Z,981.24
2022-11-27T02:26:26.188Z,981.23
2022-11-27T02:27:26.415Z,981.22
2022-11-27T02:28:26.620Z,981.19
2022-11-27T02:29:26.841Z,981.20
2022-11-27T02:30:27.050Z,981.21
2022-11-27T02:31:27.340Z,981.20
2022-11-27T02:32:27.422Z,981.20
2022-11-27T02:33:27.641Z,981.20
2022-11-27T02:34:27.880Z,981.16
2022-11-27T02:35:28.092Z,981.19
2022-11-27T02:36:28.322Z,981.17
2022-11-27T02:37:28.534Z,981.18
2022-11-27T02:38:28.772Z,981.17
2022-11-27T02:39:28.983Z,981.18
2022-11-27T02:40:29.221Z,981.15
2022-11-27T02:41:29.434Z,981.13
2022-11-27T02:42:29.664Z,981.11
2022-11-27T02:43:29.875Z,981.06
2022-11-27T02:44:30.094Z,981.10
2022-11-27T02:45:30.314Z,981.14
2022-11-27T02:46:30.589Z,981.09
2022-11-27T02:47:30.656Z,981.13
2022-11-27T02:48:30.885Z,981.15
2022-11-27T02:49:31.104Z,981.14
2022-11-27T02:50:31.337Z,981.11
2022-11-27T02:51:31.586Z,981.09
2022-11-27T02:52:31.706Z,981.11
2022-11-27T02:53:31.915Z,981.16
2022-11-27T02:54:32.158Z,981.11
2022-11-27T02:55:32.268Z,981.15
2022-11-27T02:56:32.487Z,981.13
2022-11-27T02:57:32.698Z,981.15
2022-11-27T02:58:32.920Z,981.15
2022-11-27T02:59:33.140Z,981.19
2022-11-27T03:00:33.369Z,981.19
2022-11-27T03:01:33.656Z,981.22
2022-11-27T03:02:33.814Z,981.16
2022-11-27T03:03:33.880Z,981.20
2022-11-27T03:04:34.141Z,981.22
2022-11-27T03:05:34.230Z,981.19
2022-11-27T03:06:34.451Z,981.19
2022-11-27T03:07:34.705Z,981.18
2022-11-27T03:08:34.921Z,981.16
2022-11-27T03:09:35.155Z,981.16
2022-11-27T03:10:35.384Z,981.14
2022-11-27T03:11:35.606Z,981.16
2022-11-27T03:12:35.824Z,981.17
2022-11-27T03:13:36.042Z,981.14
2022-11-27T03:14:36.282Z,981.14
2022-11-27T03:15:36.534Z,981.14
2022-11-27T03:16:36.747Z,981.14
2022-11-27T03:17:36.964Z,981.08
2022-11-27T03:18:37.203Z,981.07
2022-11-27T03:19:37.430Z,981.08
2022-11-27T03:20:37.663Z,981.09
2022-11-27T03:21:37.878Z,981.04
2022-11-27T03:22:38.106Z,981.01
2022-11-27T03:23:38.316Z,980.99
2022-11-27T03:24:38.890Z,980.95
2022-11-27T03:25:38.767Z,980.91
2022-11-27T03:26:39.006Z,980.81
2022-11-27T03:27:39.217Z,980.81
2022-11-27T03:28:39.459Z,980.80
2022-11-27T03:29:39.558Z,980.80
2022-11-27T03:30:39.789Z,980.76
2022-11-27T03:31:40.063Z,980.76
2022-11-27T03:32:40.251Z,980.79
2022-11-27T03:33:40.458Z,980.77
2022-11-27T03:34:41.886Z,980.79
2022-11-27T03:35:40.810Z,980.77
2022-11-27T03:36:41.050Z,980.81
2022-11-27T03:37:41.273Z,980.81
2022-11-27T03:38:41.520Z,980.77
2022-11-27T03:39:41.742Z,980.76
2022-11-27T03:40:41.983Z,980.74
2022-11-27T03:41:42.202Z,980.72
2022-11-27T03:42:42.421Z,980.71
2022-11-27T03:43:42.652Z,980.68
2022-11-27T03:44:42.896Z,980.67
2022-11-27T03:45:43.103Z,980.67
2022-11-27T03:46:43.363Z,980.63
2022-11-27T03:47:43.586Z,980.63
2022-11-27T03:48:43.807Z,980.60
2022-11-27T03:49:44.033Z,980.55
2022-11-27T03:50:44.254Z,980.56
2022-11-27T03:51:44.474Z,980.53
2022-11-27T03:52:44.704Z,980.50
2022-11-27T03:53:44.905Z,980.46
2022-11-27T03:54:45.196Z,980.46
2022-11-27T03:55:45.255Z,980.41
2022-11-27T03:56:45.488Z,980.43
2022-11-27T03:57:45.715Z,980.43
2022-11-27T03:58:45.947Z,980.44
2022-11-27T03:59:46.167Z,980.44
2022-11-27T04:00:46.408Z,980.46
2022-11-27T04:01:46.696Z,980.47
2022-11-27T04:02:46.778Z,980.45
2022-11-27T04:03:47.078Z,980.46
2022-11-27T04:04:47.188Z,980.51
2022-11-27T04:05:47.931Z,980.49
2022-11-27T04:06:47.605Z,980.52
2022-11-27T04:07:47.825Z,980.54
2022-11-27T04:08:48.048Z,980.57
2022-11-27T04:09:48.260Z,980.53
2022-11-27T04:10:48.500Z,980.57
2022-11-27T04:11:48.703Z,980.57
2022-11-27T04:12:48.939Z,980.55
2022-11-27T04:13:49.151Z,980.51
2022-11-27T04:14:49.390Z,980.53
2022-11-27T04:15:49.645Z,980.54
2022-11-27T04:16:49.772Z,980.54
2022-11-27T04:17:49.983Z,980.51
2022-11-27T04:18:50.214Z,980.53
2022-11-27T04:19:50.442Z,980.55
2022-11-27T04:20:50.663Z,980.54
2022-11-27T04:21:50.867Z,980.54
2022-11-27T04:22:51.105Z,980.57
2022-11-27T04:23:51.314Z,980.53
2022-11-27T04:24:51.555Z,980.50
2022-11-27T04:25:51.765Z,980.50
2022-11-27T04:26:52.002Z,980.56
2022-11-27T04:27:52.215Z,980.52
2022-11-27T04:28:52.511Z,980.56
2022-11-27T04:29:52.635Z,980.53
2022-11-27T04:30:52.877Z,980.54
2022-11-27T04:31:53.190Z,980.52
2022-11-27T04:32:53.338Z,980.46
2022-11-27T04:33:53.549Z,980.48
2022-11-27T04:34:53.775Z,980.42
2022-11-27T04:35:53.977Z,980.44
2022-11-27T04:36:54.187Z,980.41
2022-11-27T04:37:54.399Z,980.37
2022-11-27T04:38:54.639Z,980.34
2022-11-27T04:39:54.859Z,980.36
2022-11-27T04:40:55.089Z,980.33
2022-11-27T04:41:55.309Z,980.36
2022-11-27T04:42:55.540Z,980.40
2022-11-27T04:43:55.761Z,980.40
2022-11-27T04:44:56.001Z,980.43
2022-11-27T04:45:56.211Z,980.44
2022-11-27T04:46:56.502Z,980.44
2022-11-27T04:47:56.570Z,980.41
2022-11-27T04:48:56.792Z,980.45
2022-11-27T04:49:57.007Z,980.44
2022-11-27T04:50:57.221Z,980.36
2022-11-27T04:51:57.442Z,980.39
2022-11-27T04:52:57.812Z,980.34
2022-11-27T04:53:57.793Z,980.35
2022-11-27T04:55:00.194Z,980.32
2022-11-27T04:55:58.133Z,980.31
2022-11-27T04:56:58.372Z,980.31
2022-11-27T04:57:58.574Z,980.28
2022-11-27T04:58:58.805Z,980.28
2022-11-27T04:59:59.032Z,980.26
2022-11-27T05:00:59.319Z,980.29
2022-11-27T05:01:59.475Z,980.27
2022-11-27T05:02:59.876Z,980.29
2022-11-27T05:03:59.905Z,980.28
2022-11-27T05:05:00.142Z,980.25
2022-11-27T05:06:00.356Z,980.25
2022-11-27T05:07:00.596Z,980.25
2022-11-27T05:08:00.832Z,980.23
2022-11-27T05:09:00.964Z,980.23
2022-11-27T05:10:08.258Z,980.23
2022-11-27T05:11:01.367Z,980.22
2022-11-27T05:12:01.588Z,980.24
2022-11-27T05:13:01.818Z,980.22
2022-11-27T05:14:02.078Z,980.26
2022-11-27T05:15:04.605Z,980.18
2022-11-27T05:16:02.481Z,980.22
2022-11-27T05:17:02.733Z,980.16
2022-11-27T05:18:02.898Z,980.18
2022-11-27T05:19:03.134Z,980.18
2022-11-27T05:20:03.339Z,980.14
2022-11-27T05:21:03.564Z,980.16
2022-11-27T05:22:03.772Z,980.16
2022-11-27T05:23:04.008Z,980.14
2022-11-27T05:24:04.211Z,980.17
2022-11-27T05:25:04.451Z,980.17
2022-11-27T05:26:04.551Z,980.17
2022-11-27T05:27:04.803Z,980.12
2022-11-27T05:28:04.990Z,980.17
2022-11-27T05:29:05.212Z,980.13
2022-11-27T05:30:05.423Z,980.18
2022-11-27T05:31:05.723Z,980.21
2022-11-27T05:32:05.824Z,980.22
2022-11-27T05:33:06.113Z,980.20
2022-11-27T05:34:06.272Z,980.21
2022-11-27T05:35:06.494Z,980.20
2022-11-27T05:36:06.706Z,980.24
2022-11-27T05:37:06.941Z,980.22
2022-11-27T05:38:07.143Z,980.22
2022-11-27T05:39:07.375Z,980.21
2022-11-27T05:40:07.583Z,980.17
2022-11-27T05:41:07.895Z,980.19
2022-11-27T05:42:08.027Z,980.17
2022-11-27T05:43:08.226Z,980.11
2022-11-27T05:44:08.346Z,980.14
2022-11-27T05:45:08.551Z,980.14
2022-11-27T05:46:08.807Z,980.16
2022-11-27T05:47:09.055Z,980.19
2022-11-27T05:48:09.177Z,980.15
2022-11-27T05:49:09.406Z,980.17
2022-11-27T05:50:09.517Z,980.16
2022-11-27T05:51:09.758Z,980.13
2022-11-27T05:52:09.859Z,980.15
2022-11-27T05:53:10.090Z,980.17
2022-11-27T05:54:10.307Z,980.17
2022-11-27T05:55:10.544Z,980.17
2022-11-27T05:56:10.749Z,980.16
2022-11-27T05:57:10.988Z,980.16
2022-11-27T05:58:11.210Z,980.21
2022-11-27T05:59:11.444Z,980.16
2022-11-27T06:00:11.660Z,980.18
2022-11-27T06:01:11.891Z,980.20
2022-11-27T06:02:18.392Z,980.21
2022-11-27T06:03:13.400Z,980.19
2022-11-27T06:04:12.460Z,980.24
2022-11-27T06:05:12.683Z,980.21
2022-11-27T06:06:12.893Z,980.25
2022-11-27T06:07:13.188Z,980.24
2022-11-27T06:08:13.251Z,980.24
2022-11-27T06:09:13.785Z,980.28
2022-11-27T06:10:13.615Z,980.28
2022-11-27T06:11:13.844Z,980.23
2022-11-27T06:12:14.055Z,980.24
2022-11-27T06:13:14.283Z,980.24
2022-11-27T06:14:14.494Z,980.18
2022-11-27T06:15:14.716Z,980.17
2022-11-27T06:16:14.987Z,980.15
2022-11-27T06:17:15.095Z,980.16
2022-11-27T06:18:15.314Z,980.12
2022-11-27T06:19:15.547Z,980.09
2022-11-27T06:20:15.756Z,980.06
2022-11-27T06:21:15.994Z,980.08
2022-11-27T06:22:16.198Z,980.09
2022-11-27T06:23:16.439Z,980.07
2022-11-27T06:24:16.658Z,980.09
2022-11-27T06:25:16.945Z,980.09
2022-11-27T06:26:17.007Z,980.04
2022-11-27T06:27:17.218Z,980.05
2022-11-27T06:28:17.322Z,980.00
2022-11-27T06:29:17.559Z,980.01
2022-11-27T06:30:17.792Z,980.05
2022-11-27T06:31:18.538Z,980.05
2022-11-27T06:32:18.191Z,980.07
2022-11-27T06:33:18.440Z,980.07
2022-11-27T06:34:18.540Z,980.06
2022-11-27T06:35:18.799Z,980.12
2022-11-27T06:36:18.910Z,980.12
2022-11-27T06:37:19.159Z,980.13
2022-11-27T06:38:19.383Z,980.13
2022-11-27T06:39:19.622Z,980.12
2022-11-27T06:40:19.742Z,980.10
2022-11-27T06:41:19.994Z,980.10
2022-11-27T06:42:20.091Z,980.09
2022-11-27T06:43:20.343Z,980.09
2022-11-27T06:44:20.454Z,980.09
2022-11-27T06:45:20.704Z,980.08
2022-11-27T06:46:20.956Z,980.11
2022-11-27T06:47:21.082Z,980.08
2022-11-27T06:48:21.195Z,980.14
2022-11-27T06:49:21.424Z,980.17
2022-11-27T06:50:21.666Z,980.12
2022-11-27T06:51:21.886Z,980.13
2022-11-27T06:52:22.123Z,980.15
2022-11-27T06:53:22.337Z,980.11
2022-11-27T06:54:22.587Z,980.11
2022-11-27T06:55:22.817Z,980.14
2022-11-27T06:56:23.056Z,980.08
2022-11-27T06:57:23.167Z,980.05
2022-11-27T06:58:26.558Z,980.07
2022-11-27T06:59:24.627Z,980.04
2022-11-27T07:00:23.817Z,980.03
2022-11-27T07:01:23.967Z,980.02
2022-11-27T07:02:24.135Z,980.01
2022-11-27T07:03:24.238Z,980.01
2022-11-27T07:04:24.495Z,980.03
2022-11-27T07:05:24.719Z,980.02
2022-11-27T07:06:24.963Z,979.98
2022-11-27T07:07:25.218Z,979.95
2022-11-27T07:08:25.361Z,979.94
2022-11-27T07:09:25.520Z,979.94
2022-11-27T07:10:25.738Z,979.95
2022-11-27T07:11:25.860Z,979.89
2022-11-27T07:12:26.111Z,979.91
2022-11-27T07:13:26.222Z,979.88
2022-11-27T07:14:26.473Z,979.94
2022-11-27T07:15:26.582Z,979.94
2022-11-27T07:16:26.897Z,979.94
2022-11-27T07:17:26.985Z,979.92
2022-11-27T07:18:27.232Z,979.90
2022-11-27T07:19:27.455Z,979.92
2022-11-27T07:20:27.807Z,979.90
2022-11-27T07:21:27.924Z,979.91
2022-11-27T07:22:28.183Z,979.95
2022-11-27T07:23:28.296Z,979.87
2022-11-27T07:24:28.561Z,979.90
2022-11-27T07:25:28.685Z,979.86
2022-11-27T07:26:28.956Z,979.90
2022-11-27T07:27:29.085Z,979.82
2022-11-27T07:28:29.348Z,979.83
2022-11-27T07:29:29.475Z,979.82
2022-11-27T07:30:29.746Z,979.87
2022-11-27T07:31:29.930Z,979.81
2022-11-27T07:32:30.047Z,979.80
2022-11-27T07:33:30.167Z,979.82
2022-11-27T07:34:30.435Z,979.80
2022-11-27T07:35:30.567Z,979.77
2022-11-27T07:36:30.709Z,979.72
2022-11-27T07:37:30.809Z,979.76
2022-11-27T07:38:31.049Z,979.70
2022-11-27T07:40:00.149Z,979.71
2022-11-27T07:40:32.409Z,979.71
2022-11-27T07:41:34.125Z,979.68
2022-11-27T07:42:39.467Z,979.70
2022-11-27T07:43:32.960Z,979.68
2022-11-27T07:44:32.152Z,979.67
2022-11-27T07:45:32.324Z,979.70
2022-11-27T07:46:32.452Z,979.67
2022-11-27T07:47:32.562Z,979.65
2022-11-27T07:48:32.821Z,979.69
2022-11-27T07:49:32.934Z,979.70
2022-11-27T07:50:33.203Z,979.71
2022-11-27T07:51:33.314Z,979.70
2022-11-27T07:52:38.079Z,979.71
2022-11-27T07:53:34.783Z,979.71
2022-11-27T07:54:33.980Z,979.71
2022-11-27T07:55:34.113Z,979.79
2022-11-27T07:56:34.379Z,979.72
2022-11-27T07:57:34.484Z,979.75
2022-11-27T07:58:34.736Z,979.73
2022-11-27T07:59:34.855Z,979.76
2022-11-27T08:00:35.194Z,979.75
2022-11-27T08:01:35.334Z,979.79
2022-11-27T08:02:35.435Z,979.82
2022-11-27T08:03:35.556Z,979.78
2022-11-27T08:04:35.850Z,979.79
2022-11-27T08:05:35.957Z,979.82
2022-11-27T08:06:36.217Z,979.83
2022-11-27T08:07:36.380Z,979.76
2022-11-27T08:08:36.520Z,979.78
2022-11-27T08:09:36.638Z,979.81
2022-11-27T08:10:36.909Z,979.75
2022-11-27T08:11:37.037Z,979.79
2022-11-27T08:12:37.297Z,979.79
2022-11-27T08:13:37.408Z,979.80
2022-11-27T08:14:37.826Z,979.77
2022-11-27T08:15:37.803Z,979.75
2022-11-27T08:16:38.005Z,979.79
2022-11-27T08:17:38.090Z,979.73
2022-11-27T08:18:38.342Z,979.76
2022-11-27T08:19:38.461Z,979.75
2022-11-27T08:20:38.728Z,979.77
2022-11-27T08:21:38.841Z,979.79
2022-11-27T08:22:39.102Z,979.80
2022-11-27T08:23:39.230Z,979.81
2022-11-27T08:24:39.688Z,979.89
2022-11-27T08:25:39.635Z,979.88
2022-11-27T08:26:39.899Z,979.89
2022-11-27T08:27:40.024Z,979.91
2022-11-27T08:28:40.274Z,979.93
2022-11-27T08:29:40.393Z,979.89
2022-11-27T08:30:40.644Z,979.91
2022-11-27T08:31:40.820Z,979.90
2022-11-27T08:32:40.943Z,979.82
2022-11-27T08:33:41.074Z,979.79
2022-11-27T08:34:41.435Z,979.77
2022-11-27T08:35:41.443Z,979.74
2022-11-27T08:36:41.686Z,979.75
2022-11-27T08:37:41.817Z,979.72
2022-11-27T08:38:41.960Z,979.68
2022-11-27T08:39:42.085Z,979.69
2022-11-27T08:40:42.352Z,979.70
2022-11-27T08:41:42.481Z,979.66
2022-11-27T08:42:42.610Z,979.62
2022-11-27T08:43:42.726Z,979.61
2022-11-27T08:44:43.412Z,979.59
2022-11-27T08:45:43.233Z,979.61
2022-11-27T08:46:43.368Z,979.60
2022-11-27T08:47:43.505Z,979.58
2022-11-27T08:48:43.761Z,979.59
2022-11-27T08:49:46.211Z,979.52
2022-11-27T08:50:44.070Z,979.46
2022-11-27T08:51:44.191Z,979.48
2022-11-27T08:52:44.469Z,979.49
2022-11-27T08:53:44.581Z,979.51
2022-11-27T08:54:44.841Z,979.52
2022-11-27T08:55:44.972Z,979.54
2022-11-27T08:56:45.112Z,979.49
2022-11-27T08:57:45.232Z,979.47
2022-11-27T08:58:45.493Z,979.44
2022-11-27T08:59:45.621Z,979.46
2022-11-27T09:00:45.964Z,979.47
2022-11-27T09:01:46.003Z,979.45
2022-11-27T09:02:46.252Z,979.41
2022-11-27T09:03:46.405Z,979.48
2022-11-27T09:04:46.543Z,979.51
2022-11-27T09:05:46.675Z,979.50
2022-11-27T09:06:46.823Z,979.45
2022-11-27T09:07:47.017Z,979.44
2022-11-27T09:08:47.116Z,979.44
2022-11-27T09:09:47.247Z,979.50
2022-11-27T09:10:47.517Z,979.44
2022-11-27T09:11:47.635Z,979.41
2022-11-27T09:12:47.897Z,979.44
2022-11-27T09:13:48.017Z,979.48
2022-11-27T09:14:48.279Z,979.47
2022-11-27T09:15:48.399Z,979.44
2022-11-27T09:16:48.701Z,979.44
2022-11-27T09:17:48.859Z,979.44
2022-11-27T09:18:49.124Z,979.42
2022-11-27T09:19:49.239Z,979.44
2022-11-27T09:20:49.388Z,979.43
2022-11-27T09:21:49.499Z,979.40
2022-11-27T09:22:49.746Z,979.41
2022-11-27T09:23:49.869Z,979.38
2022-11-27T09:24:50.120Z,979.37
2022-11-27T09:25:50.239Z,979.35
2022-11-27T09:26:50.491Z,979.35
2022-11-27T09:27:50.613Z,979.35
2022-11-27T09:28:50.884Z,979.36
2022-11-27T09:29:51.001Z,979.35
2022-11-27T09:30:51.141Z,979.35
2022-11-27T09:31:51.364Z,979.27
2022-11-27T09:32:51.512Z,979.28
2022-11-27T09:33:51.630Z,979.22
2022-11-27T09:34:51.829Z,979.25
2022-11-27T09:35:51.923Z,979.19
2022-11-27T09:36:52.071Z,979.16
2022-11-27T09:37:52.194Z,979.07
2022-11-27T09:38:52.487Z,979.06
2022-11-27T09:39:52.583Z,979.07
2022-11-27T09:40:52.854Z,979.00
2022-11-27T09:41:52.976Z,978.95
2022-11-27T09:42:53.226Z,978.90
2022-11-27T09:43:53.355Z,978.88
2022-11-27T09:44:53.616Z,978.82
2022-11-27T09:45:53.813Z,978.81
2022-11-27T09:46:53.925Z,978.76
2022-11-27T09:47:54.046Z,978.78
2022-11-27T09:48:54.314Z,978.75
2022-11-27T09:49:54.435Z,978.70
2022-11-27T09:50:54.697Z,978.70
2022-11-27T09:51:54.831Z,978.69
2022-11-27T09:52:55.079Z,978.71
2022-11-27T09:53:55.199Z,978.65
2022-11-27T09:54:55.460Z,978.67
2022-11-27T09:55:55.587Z,978.66
2022-11-27T09:56:55.909Z,978.62
2022-11-27T09:57:55.972Z,978.59
2022-11-27T09:58:56.246Z,978.60
2022-11-27T09:59:56.361Z,978.63
2022-11-27T10:00:56.641Z,978.60
2022-11-27T10:01:56.830Z,978.56
2022-11-27T10:02:57.235Z,978.50
2022-11-27T10:03:57.125Z,978.52
2022-11-27T10:05:13.327Z,978.52
2022-11-27T10:05:58.590Z,978.48
2022-11-27T10:06:57.784Z,978.45
2022-11-27T10:08:01.862Z,978.46
2022-11-27T10:08:59.143Z,978.47
2022-11-27T10:09:58.333Z,978.49
2022-11-27T10:10:58.475Z,978.45
2022-11-27T10:11:58.584Z,978.45
2022-11-27T10:12:58.844Z,978.43
2022-11-27T10:13:58.974Z,978.38
2022-11-27T10:14:59.223Z,978.42
2022-11-27T10:15:59.345Z,978.38
2022-11-27T10:16:59.678Z,978.34
2022-11-27T10:17:59.765Z,978.36
2022-11-27T10:19:00.015Z,978.30
2022-11-27T10:20:00.130Z,978.34
2022-11-27T10:21:00.386Z,978.27
2022-11-27T10:22:00.506Z,978.29
2022-11-27T10:23:00.763Z,978.26
2022-11-27T10:24:00.876Z,978.26
2022-11-27T10:25:01.127Z,978.23
2022-11-27T10:26:01.249Z,978.20
2022-11-27T10:27:01.507Z,978.16
2022-11-27T10:28:01.627Z,978.18
2022-11-27T10:29:01.884Z,978.20
2022-11-27T10:30:02.008Z,978.17
2022-11-27T10:31:02.272Z,978.17
2022-11-27T10:32:02.443Z,978.15
2022-11-27T10:33:02.636Z,978.08
2022-11-27T10:34:02.784Z,978.09
2022-11-27T10:35:02.929Z,978.06
2022-11-27T10:36:03.057Z,977.99
2022-11-27T10:37:03.308Z,978.00
2022-11-27T10:38:06.820Z,977.94
2022-11-27T10:39:03.633Z,977.87
2022-11-27T10:40:03.770Z,977.84
2022-11-27T10:41:03.915Z,977.78
2022-11-27T10:42:04.022Z,977.76
2022-11-27T10:43:04.282Z,977.74
2022-11-27T10:44:04.402Z,977.70
2022-11-27T10:45:04.695Z,977.71
2022-11-27T10:46:04.834Z,977.69
2022-11-27T10:47:05.032Z,977.66
2022-11-27T10:48:05.157Z,977.63
2022-11-27T10:49:05.417Z,977.61
2022-11-27T10:50:05.532Z,977.65
2022-11-27T10:51:05.819Z,977.67
2022-11-27T10:52:06.014Z,977.67
2022-11-27T10:53:06.273Z,977.66
2022-11-27T10:54:06.415Z,977.68
2022-11-27T10:55:06.556Z,977.62
2022-11-27T10:56:06.687Z,977.60
2022-11-27T10:57:06.937Z,977.53
2022-11-27T10:58:07.165Z,977.48
2022-11-27T10:59:07.415Z,977.46
2022-11-27T11:00:07.533Z,977.44
2022-11-27T11:01:07.877Z,977.43
2022-11-27T11:02:08.027Z,977.43
2022-11-27T11:03:08.235Z,977.41
2022-11-27T11:04:36.470Z,977.41
2022-11-27T11:05:34.553Z,977.41
2022-11-27T11:06:20.536Z,977.37
2022-11-27T11:07:09.967Z,977.36
2022-11-27T11:08:09.159Z,977.35
2022-11-27T11:09:09.269Z,977.35
2022-11-27T11:10:09.517Z,977.34
2022-11-27T11:11:09.620Z,977.37
2022-11-27T11:12:09.878Z,977.33
2022-11-27T11:13:09.991Z,977.35
2022-11-27T11:14:10.243Z,977.32
2022-11-27T11:15:10.480Z,977.33
2022-11-27T11:16:14.426Z,977.29
2022-11-27T11:17:10.927Z,977.26
2022-11-27T11:18:11.022Z,977.23
2022-11-27T11:19:11.140Z,977.24
2022-11-27T11:20:11.390Z,977.22
2022-11-27T11:21:11.623Z,977.20
2022-11-27T11:22:14.584Z,977.21
2022-11-27T11:23:12.076Z,977.23
2022-11-27T11:24:12.339Z,977.28
2022-11-27T11:25:12.443Z,977.26
2022-11-27T11:26:12.714Z,977.25
2022-11-27T11:27:12.829Z,977.31
2022-11-27T11:28:13.094Z,977.29
2022-11-27T11:29:13.225Z,977.28
2022-11-27T11:30:13.485Z,977.25
2022-11-27T11:31:13.660Z,977.25
2022-11-27T11:32:13.875Z,977.24
2022-11-27T11:33:13.875Z,977.22
2022-11-27T11:34:14.135Z,977.23
2022-11-27T11:35:14.260Z,977.22
2022-11-27T11:36:14.523Z,977.22
2022-11-27T11:37:14.666Z,977.22
2022-11-27T11:38:14.827Z,977.26
2022-11-27T11:39:15.016Z,977.25
2022-11-27T11:40:16.550Z,977.22
2022-11-27T11:41:15.279Z,977.23
2022-11-27T11:42:15.544Z,977.20
2022-11-27T11:43:15.691Z,977.18
2022-11-27T11:44:15.930Z,977.16
2022-11-27T11:45:16.060Z,977.15
2022-11-27T11:46:16.232Z,977.12
2022-11-27T11:47:16.309Z,977.14
2022-11-27T11:48:16.570Z,977.11
2022-11-27T11:49:16.698Z,977.12
2022-11-27T11:50:17.025Z,977.08
2022-11-27T11:51:17.081Z,977.07
2022-11-27T11:52:17.331Z,977.06
2022-11-27T11:53:17.464Z,977.02
2022-11-27T11:54:17.721Z,977.01
2022-11-27T11:55:17.854Z,977.01
2022-11-27T11:56:18.123Z,976.98
2022-11-27T11:57:18.253Z,976.99
2022-11-27T11:58:18.627Z,976.99
2022-11-27T11:59:18.643Z,976.99
2022-11-27T12:00:18.896Z,976.99
2022-11-27T12:01:26.924Z,977.03
2022-11-27T12:02:20.312Z,977.03
2022-11-27T12:03:19.446Z,977.01
2022-11-27T12:04:19.764Z,977.03
2022-11-27T12:05:19.838Z,977.03
2022-11-27T12:06:20.095Z,977.05
2022-11-27T12:07:20.287Z,977.07
2022-11-27T12:08:20.386Z,977.02
2022-11-27T12:09:20.519Z,977.08
2022-11-27T12:10:20.777Z,977.04
2022-11-27T12:11:20.916Z,977.00
2022-11-27T12:12:21.177Z,977.01
2022-11-27T12:13:21.304Z,977.03
2022-11-27T12:14:21.558Z,977.00
2022-11-27T12:15:21.687Z,976.99
2022-11-27T12:16:29.137Z,976.95
2022-11-27T12:17:22.149Z,977.00
2022-11-27T12:18:22.418Z,976.95
2022-11-27T12:19:22.520Z,976.95
2022-11-27T12:20:22.785Z,976.96
2022-11-27T12:21:22.916Z,976.94
2022-11-27T12:22:23.181Z,976.94
2022-11-27T12:23:23.302Z,976.96
2022-11-27T12:24:23.550Z,976.97
2022-11-27T12:25:23.669Z,976.93
2022-11-27T12:26:23.931Z,976.91
2022-11-27T12:27:24.055Z,976.89
2022-11-27T12:28:24.313Z,976.90
2022-11-27T12:29:24.433Z,976.92
2022-11-27T12:30:24.703Z,976.90
2022-11-27T12:31:24.866Z,976.93